AirNav  
 
 754 users online  

0L9 Echo Bay Airport
Overton, Nevada, USA

GOING TO OVERTON?


FAA INFORMATION EFFECTIVE 04 JANUARY 2018

Location

FAA Identifier: 0L9
Lat/Long: 36-18-39.7000N / 114-27-50.0000W
36-18.661667N / 114-27.833333W
36.3110278 / -114.4638889
(estimated)
Elevation: 1535 ft. / 467.9 m (surveyed)
Variation: 14E (1985)
From city: 14 miles S of OVERTON, NV
Time zone: UTC -8 (UTC -7 during Daylight Saving Time)
Zip code: 89040

Airport Operations

Airport use: Open to the public
Control tower: no
ARTCC: LOS ANGELES CENTER
FSS: RENO FLIGHT SERVICE STATION
NOTAMs facility: RNO (NOTAM-D service available)
Attendance: ON CALL
MONITOR UNICOM 122.8 FOR TAXI SVC TO RESORT AREA.
Wind indicator: yes
Segmented circle: yes

Airport Communications

CTAF/UNICOM: 122.8

Nearby radio navigation aids

VOR radial/distance  VOR name  Freq  Var
BLDr031/27.1BOULDER CITY VORTAC116.7015E
MMMr182/28.9MORMON MESA VORTAC114.3016E
LASr053/36.4LAS VEGAS VORTAC116.9015E

Airport Services

Parking: tiedowns
Airframe service: NONE
Powerplant service: NONE
Bottled oxygen: NONE
Bulk oxygen: NONE

Runway Information

Runway 6/24

Dimensions: 3400 x 50 ft. / 1036 x 15 m
Surface: asphalt, in good condition
3-4 FT BRUSH AND VEGETATION ON RWY ENDS AND EDGES
Weight bearing capacity: 
Single wheel: 12.5
RUNWAY 6  RUNWAY 24
Latitude: 36-18.607492N36-18.717037N
Longitude: 114-28.173280W114-27.494103W
Gradient: 1.3%1.3%
Traffic pattern: leftright
Runway heading: 065 magnetic, 079 true245 magnetic, 259 true
Markings: basic, in fair conditionbasic, in fair condition
Runway end identifier lights: nono
Obstructions: 4 ft. fence, 315 ft. from runway, 28:1 slope to clear
3-4 FT BRUSH AND VEGETATION ON RWY ENDS. ABRUPT PAVEMENT EDGE LIPS EXCEED 3 INS.
4 ft. fence, 315 ft. from runway, 28:1 slope to clear
3-4 FT BRUSH AND VEGETATION ON RWY ENDS. ABRUPT PAVEMENT EDGE LIPS EXCEED 3 INS.

Airport Ownership and Management from official FAA records

Ownership: Publicly-owned
Owner: LAKE MEAD NATL REC AREA
601 NEVADA HWY
BOULDER CITY, NV 89005
Phone (702) 293-8971
Manager: SCOTT TAYLOR
601 NEVADA HWY
BOULDER CITY, NV 89005
Phone (702) 293-8971
24 HR EMERGENCY NUMBER (702) 293-8932.

Airport Operational Statistics

Aircraft based on the field: 1
Single engine airplanes: 1
    
Aircraft operations: avg 42/month *
100% transient general aviation
* for 12-month period ending 31 December 2015

Additional Remarks

LIVESTOCK ON & INVOF ARPT.
PARALLEL TWY ROUGH INFREQUENTLY USED.

Instrument Procedures

There are no published instrument procedures at 0L9.

Some nearby airports with instrument procedures:

KLSV - Nellis Air Force Base (28 nm W)
KBVU - Boulder City Municipal Airport (29 nm SW)
KVGT - North Las Vegas Airport (36 nm W)
KLAS - Mc Carran International Airport (36 nm W)
KHND - Henderson Executive Airport (38 nm SW)
 
Loc | Ops | Rwys | IFR | FBO | Links
Com | Nav | Svcs | Stats | Notes


 
Area around 0L9 (Echo Bay Airport)
 
Road maps at: MapQuest Bing Google
 
Aerial photo
WARNING: Photo may not be current or correct
Aerial photo of 0L9 (Echo Bay Airport)
Do you have a better or more recent aerial photo of Echo Bay Airport that you would like to share? If so, please send us your photo.

 
Sectional chart

 
Airport distance calculator
Flying to Echo Bay Airport? Find the distance to fly.

From to 0L9

Sunrise and sunset
Times for 20-Jan-2018
 Local
(UTC-8)
 Zulu
(UTC)
Morning civil twilight06:2014:20
Sunrise06:4814:48
Sunset16:5000:50
Evening civil twilight17:1801:18

Current date and time
Zulu (UTC)  20-Jan-2018 13:48:58
Local (UTC-8)  20-Jan-2018 05:48:58
 
METAR
KLSV 
27nm W 
201258Z AUTO 27012G21KT 10SM OVC085 11/03 A2975 RMK AO2 SLP066 T01080026 $
KBVU 
29nm SW 
201335Z AUTO 28010KT 10SM OVC085 11/00 A2978 RMK AO2
KLAS 
36nm W 
201256Z 31009G19KT 10SM FEW050 SCT070 BKN100 11/02 A2977 RMK AO2 SLP070 T01110017 $
KVGT 
36nm W 
201253Z AUTO 32021G28KT 10SM BKN090 10/01 A2975 RMK AO2 PK WND 33028/1253 SLP085 T01000006
KHND 
38nm SW 
201256Z AUTO 30004KT 10SM SCT070 09/01 A2979 RMK AO2 SLP083 T00890011 $
TAF
KLSV 
27nm W 
200838Z 2008/2113 20012KT 9999 BKN070 620702 QNH2973INS TEMPO 2008/2013 22015G25KT SCT050 BKN060 620603 520009 BECMG 2012/2013 32020G30KT 9999 BKN080 620802 520009 QNH2976INS BECMG 2021/2022 32012KT 9999 BKN100 611003 QNH2995INS BECMG 2105/2106 32009KT 9999 FEW080 QNH3003INS TX14/2022Z TN04/2014Z
NOTAMs
Click for the latest NOTAMs
NOTAMs are issued by the DoD/FAA and will open in a separate window not controlled by AirNav.

 

 
 

Would you like to see your business listed on this page?

 If your business provides an interesting product or service to pilots, flight crews, aircraft, or users of the Echo Bay Airport, you should consider listing it here.  To start the listing process, click on the button below
 
Add a business
 

Other Pages about Echo Bay Airport

Update a link
 
Copyright © AirNav, LLC. All rights reserved. Privacy Policy  Contact